Aérodrome :







RETROUVEZ-NOUS SUR...

 
LOGIN :

S'inscrire | Disclaimer

   EN    FR    IT 

 









Légende :    VFR   VFR Marginal   IFR   IFR Intensif   IFR Très Intensif
Visi : 
Plafond : 
>= 8 km
>= 3000ft
5 à 8 km
1000 à 3000 ft
1500m à 5 km
500 à 1000 ft
800 à 1500m
200 à 500 ft
< 800m
< 200 ft
Symboles :   Orages  Brouillard  Fortes neiges  Fortes précipitations  Vent > 20 kt






- Altitude de l'aérodrome : 48 ft
- Code IATA : REK


BIRK - Reykjavik

DERNIER METAR :
  • 241700Z 22006KT 6000 -SHSN FEW010CB SCT018 BKN040 M00/M02 Q0988

METARs EXPIRÉS :
  • 241600Z 19007KT 9999 FEW007 SCT038 BKN052 00/M02 Q0988 R88/CLRD//

TAF TAF BIRK
Valide du 24 à 18h jusqu'au 25 à 18h UTC


241602Z 2418/2518 18014KT 9999 -SHSN FEW015 SCT025 BKN038 TX01/2418Z TNM04/2506Z
TEMPO 2418/2423 1500 SHSN BKN010CB
BECMG 2423/2501 09005KT NSW SCT035 BKN045



MET'MAP, la Météo Aéronautique d'un coup d'oeil ! - Copyright ORBIFLY Décembre 2007 - Disclaimer

ORBIFLY MET'MAP TEAM :

Programmation & Développement : Alexandra Zaïnal
Sur une idée originale de : Baudouin d'Aumeries
Assistance à la programmation : Marc-Olivier Méhu
Soutien technique & logistique : Manuel Goepfert

Contact : metmap@orbifly.com




SOURCES & CREDITS :

   NOAA